sensor_id;sensor_type;location;lat;lon;timestamp;P1;durP1;ratioP1;P2;durP2;ratioP2
35743;SDS011;21867;52.012;4.324;2022-11-25T00:00:53;13.57;;;4.63;;
35743;SDS011;21867;52.012;4.324;2022-11-25T00:03:22;11.00;;;4.60;;
35743;SDS011;21867;52.012;4.324;2022-11-25T00:05:49;11.13;;;4.07;;
35743;SDS011;21867;52.012;4.324;2022-11-25T00:08:18;6.30;;;3.27;;
35743;SDS011;21867;52.012;4.324;2022-11-25T00:10:45;11.50;;;5.03;;
35743;SDS011;21867;52.012;4.324;2022-11-25T00:13:12;14.07;;;4.43;;
35743;SDS011;21867;52.012;4.324;2022-11-25T00:15:40;13.73;;;4.90;;
35743;SDS011;21867;52.012;4.324;2022-11-25T00:18:07;15.40;;;5.30;;
35743;SDS011;21867;52.012;4.324;2022-11-25T00:20:37;14.33;;;4.50;;
35743;SDS011;21867;52.012;4.324;2022-11-25T00:23:04;13.33;;;4.30;;
35743;SDS011;21867;52.012;4.324;2022-11-25T00:25:31;10.63;;;4.67;;
35743;SDS011;21867;52.012;4.324;2022-11-25T00:27:58;5.53;;;3.23;;
35743;SDS011;21867;52.012;4.324;2022-11-25T00:30:26;10.23;;;3.83;;
35743;SDS011;21867;52.012;4.324;2022-11-25T00:32:53;15.40;;;4.60;;
35743;SDS011;21867;52.012;4.324;2022-11-25T00:35:20;13.80;;;3.80;;
35743;SDS011;21867;52.012;4.324;2022-11-25T00:37:49;8.47;;;3.73;;
35743;SDS011;21867;52.012;4.324;2022-11-25T00:40:16;8.53;;;4.00;;
35743;SDS011;21867;52.012;4.324;2022-11-25T00:42:43;6.70;;;4.10;;
35743;SDS011;21867;52.012;4.324;2022-11-25T00:45:11;8.50;;;3.37;;
35743;SDS011;21867;52.012;4.324;2022-11-25T00:47:38;11.57;;;4.03;;
35743;SDS011;21867;52.012;4.324;2022-11-25T00:50:06;11.70;;;4.57;;
35743;SDS011;21867;52.012;4.324;2022-11-25T00:52:33;11.80;;;3.83;;
35743;SDS011;21867;52.012;4.324;2022-11-25T00:55:02;9.00;;;4.90;;
35743;SDS011;21867;52.012;4.324;2022-11-25T00:57:29;8.67;;;4.10;;
35743;SDS011;21867;52.012;4.324;2022-11-25T00:59:58;11.07;;;4.83;;
35743;SDS011;21867;52.012;4.324;2022-11-25T01:02:25;8.67;;;4.00;;
35743;SDS011;21867;52.012;4.324;2022-11-25T01:04:53;11.13;;;4.40;;
35743;SDS011;21867;52.012;4.324;2022-11-25T01:07:20;13.37;;;5.27;;
35743;SDS011;21867;52.012;4.324;2022-11-25T01:09:47;11.77;;;4.90;;
35743;SDS011;21867;52.012;4.324;2022-11-25T01:12:16;9.50;;;5.13;;
35743;SDS011;21867;52.012;4.324;2022-11-25T01:14:43;16.33;;;5.60;;
35743;SDS011;21867;52.012;4.324;2022-11-25T01:17:12;14.53;;;5.53;;
35743;SDS011;21867;52.012;4.324;2022-11-25T01:19:39;15.17;;;5.03;;
35743;SDS011;21867;52.012;4.324;2022-11-25T01:22:07;7.30;;;3.70;;
35743;SDS011;21867;52.012;4.324;2022-11-25T01:24:34;13.10;;;4.67;;
35743;SDS011;21867;52.012;4.324;2022-11-25T01:27:02;15.07;;;4.67;;
35743;SDS011;21867;52.012;4.324;2022-11-25T01:29:30;13.93;;;5.07;;
35743;SDS011;21867;52.012;4.324;2022-11-25T01:31:58;13.47;;;4.57;;
35743;SDS011;21867;52.012;4.324;2022-11-25T01:34:26;14.07;;;5.00;;
35743;SDS011;21867;52.012;4.324;2022-11-25T01:36:55;12.27;;;4.13;;
35743;SDS011;21867;52.012;4.324;2022-11-25T01:39:23;10.13;;;3.90;;
35743;SDS011;21867;52.012;4.324;2022-11-25T01:41:57;14.43;;;5.10;;
35743;SDS011;21867;52.012;4.324;2022-11-25T01:44:26;9.43;;;3.70;;
35743;SDS011;21867;52.012;4.324;2022-11-25T01:46:59;10.67;;;3.87;;
35743;SDS011;21867;52.012;4.324;2022-11-25T01:49:31;13.20;;;3.93;;
35743;SDS011;21867;52.012;4.324;2022-11-25T01:52:00;19.90;;;4.83;;
35743;SDS011;21867;52.012;4.324;2022-11-25T01:54:32;11.87;;;4.13;;
35743;SDS011;21867;52.012;4.324;2022-11-25T01:57:02;13.37;;;3.97;;
35743;SDS011;21867;52.012;4.324;2022-11-25T01:59:31;11.37;;;4.13;;
35743;SDS011;21867;52.012;4.324;2022-11-25T02:02:02;12.50;;;4.40;;
35743;SDS011;21867;52.012;4.324;2022-11-25T02:04:30;9.90;;;3.47;;
35743;SDS011;21867;52.012;4.324;2022-11-25T02:06:59;12.67;;;4.07;;
35743;SDS011;21867;52.012;4.324;2022-11-25T02:09:28;6.50;;;3.17;;
35743;SDS011;21867;52.012;4.324;2022-11-25T02:11:55;7.23;;;3.50;;
35743;SDS011;21867;52.012;4.324;2022-11-25T02:14:23;9.30;;;3.13;;
35743;SDS011;21867;52.012;4.324;2022-11-25T02:16:51;13.03;;;3.87;;
35743;SDS011;21867;52.012;4.324;2022-11-25T02:19:21;9.73;;;2.83;;
35743;SDS011;21867;52.012;4.324;2022-11-25T02:21:50;9.43;;;3.63;;
35743;SDS011;21867;52.012;4.324;2022-11-25T02:24:19;7.87;;;3.10;;
35743;SDS011;21867;52.012;4.324;2022-11-25T02:26:50;9.87;;;3.50;;
35743;SDS011;21867;52.012;4.324;2022-11-25T02:29:17;6.87;;;2.67;;
35743;SDS011;21867;52.012;4.324;2022-11-25T02:31:47;6.27;;;2.50;;
35743;SDS011;21867;52.012;4.324;2022-11-25T02:34:14;8.33;;;2.40;;
35743;SDS011;21867;52.012;4.324;2022-11-25T02:36:42;8.47;;;2.97;;
35743;SDS011;21867;52.012;4.324;2022-11-25T02:39:09;9.03;;;3.30;;
35743;SDS011;21867;52.012;4.324;2022-11-25T02:41:37;6.20;;;2.77;;
35743;SDS011;21867;52.012;4.324;2022-11-25T02:44:08;7.77;;;3.00;;
35743;SDS011;21867;52.012;4.324;2022-11-25T02:46:37;9.60;;;2.70;;
35743;SDS011;21867;52.012;4.324;2022-11-25T02:49:04;10.77;;;3.17;;
35743;SDS011;21867;52.012;4.324;2022-11-25T02:51:36;6.30;;;2.70;;
35743;SDS011;21867;52.012;4.324;2022-11-25T02:54:06;8.17;;;3.20;;
35743;SDS011;21867;52.012;4.324;2022-11-25T02:56:35;11.83;;;3.67;;
35743;SDS011;21867;52.012;4.324;2022-11-25T02:59:03;6.90;;;2.80;;
35743;SDS011;21867;52.012;4.324;2022-11-25T03:01:31;12.20;;;3.90;;
35743;SDS011;21867;52.012;4.324;2022-11-25T03:03:59;8.50;;;2.73;;
35743;SDS011;21867;52.012;4.324;2022-11-25T03:06:26;5.23;;;2.57;;
35743;SDS011;21867;52.012;4.324;2022-11-25T03:08:53;8.77;;;3.47;;
35743;SDS011;21867;52.012;4.324;2022-11-25T03:11:21;4.70;;;3.17;;
35743;SDS011;21867;52.012;4.324;2022-11-25T03:13:48;8.87;;;3.77;;
35743;SDS011;21867;52.012;4.324;2022-11-25T03:16:15;8.00;;;3.07;;
35743;SDS011;21867;52.012;4.324;2022-11-25T03:18:44;5.30;;;2.70;;
35743;SDS011;21867;52.012;4.324;2022-11-25T03:21:14;8.30;;;3.20;;
35743;SDS011;21867;52.012;4.324;2022-11-25T03:23:41;7.13;;;2.40;;
35743;SDS011;21867;52.012;4.324;2022-11-25T03:26:08;7.17;;;2.80;;
35743;SDS011;21867;52.012;4.324;2022-11-25T03:28:36;5.60;;;2.63;;
35743;SDS011;21867;52.012;4.324;2022-11-25T03:31:03;8.77;;;3.30;;
35743;SDS011;21867;52.012;4.324;2022-11-25T03:33:30;4.70;;;2.80;;
35743;SDS011;21867;52.012;4.324;2022-11-25T03:35:59;5.87;;;2.50;;
35743;SDS011;21867;52.012;4.324;2022-11-25T03:38:26;6.90;;;2.60;;
35743;SDS011;21867;52.012;4.324;2022-11-25T03:40:54;4.33;;;2.63;;
35743;SDS011;21867;52.012;4.324;2022-11-25T03:43:22;12.90;;;3.37;;
35743;SDS011;21867;52.012;4.324;2022-11-25T03:45:50;4.30;;;2.43;;
35743;SDS011;21867;52.012;4.324;2022-11-25T03:48:35;6.97;;;2.90;;
35743;SDS011;21867;52.012;4.324;2022-11-25T03:51:04;7.60;;;3.90;;
35743;SDS011;21867;52.012;4.324;2022-11-25T03:53:33;5.63;;;3.17;;
35743;SDS011;21867;52.012;4.324;2022-11-25T03:56:03;6.87;;;3.77;;
35743;SDS011;21867;52.012;4.324;2022-11-25T03:58:30;5.77;;;3.20;;
35743;SDS011;21867;52.012;4.324;2022-11-25T04:03:59;3.33;;;3.03;;
35743;SDS011;21867;52.012;4.324;2022-11-25T04:06:28;5.60;;;3.57;;
35743;SDS011;21867;52.012;4.324;2022-11-25T04:08:55;5.83;;;3.40;;
35743;SDS011;21867;52.012;4.324;2022-11-25T04:11:23;7.30;;;2.73;;
35743;SDS011;21867;52.012;4.324;2022-11-25T04:13:54;6.87;;;3.60;;
35743;SDS011;21867;52.012;4.324;2022-11-25T04:16:21;7.57;;;3.47;;
35743;SDS011;21867;52.012;4.324;2022-11-25T04:18:56;6.60;;;3.47;;
35743;SDS011;21867;52.012;4.324;2022-11-25T04:21:23;6.77;;;3.73;;
35743;SDS011;21867;52.012;4.324;2022-11-25T04:23:52;7.03;;;3.40;;
35743;SDS011;21867;52.012;4.324;2022-11-25T04:26:20;5.23;;;3.27;;
35743;SDS011;21867;52.012;4.324;2022-11-25T04:28:47;5.13;;;3.30;;
35743;SDS011;21867;52.012;4.324;2022-11-25T04:31:19;5.10;;;2.37;;
35743;SDS011;21867;52.012;4.324;2022-11-25T04:33:59;6.67;;;3.20;;
35743;SDS011;21867;52.012;4.324;2022-11-25T04:36:27;7.93;;;2.80;;
35743;SDS011;21867;52.012;4.324;2022-11-25T04:38:56;3.20;;;2.20;;
35743;SDS011;21867;52.012;4.324;2022-11-25T04:41:23;4.27;;;3.13;;
35743;SDS011;21867;52.012;4.324;2022-11-25T04:43:51;4.13;;;2.90;;
35743;SDS011;21867;52.012;4.324;2022-11-25T04:46:20;4.20;;;2.57;;
35743;SDS011;21867;52.012;4.324;2022-11-25T04:48:49;5.70;;;2.70;;
35743;SDS011;21867;52.012;4.324;2022-11-25T04:51:18;4.93;;;2.20;;
35743;SDS011;21867;52.012;4.324;2022-11-25T04:53:49;4.20;;;2.40;;
35743;SDS011;21867;52.012;4.324;2022-11-25T04:56:18;7.53;;;2.63;;
35743;SDS011;21867;52.012;4.324;2022-11-25T04:58:54;6.43;;;2.50;;
35743;SDS011;21867;52.012;4.324;2022-11-25T05:01:33;8.30;;;3.30;;
35743;SDS011;21867;52.012;4.324;2022-11-25T05:04:21;4.50;;;2.73;;
35743;SDS011;21867;52.012;4.324;2022-11-25T05:06:49;7.27;;;2.83;;
35743;SDS011;21867;52.012;4.324;2022-11-25T05:09:17;7.30;;;2.40;;
35743;SDS011;21867;52.012;4.324;2022-11-25T05:11:51;3.87;;;2.60;;
35743;SDS011;21867;52.012;4.324;2022-11-25T05:14:20;5.73;;;2.50;;
35743;SDS011;21867;52.012;4.324;2022-11-25T05:16:47;4.87;;;2.53;;
35743;SDS011;21867;52.012;4.324;2022-11-25T05:19:21;7.87;;;2.87;;
35743;SDS011;21867;52.012;4.324;2022-11-25T05:21:49;5.63;;;3.27;;
35743;SDS011;21867;52.012;4.324;2022-11-25T05:24:17;4.87;;;2.20;;
35743;SDS011;21867;52.012;4.324;2022-11-25T05:26:47;3.33;;;2.30;;
35743;SDS011;21867;52.012;4.324;2022-11-25T05:32:14;3.40;;;2.43;;
35743;SDS011;21867;52.012;4.324;2022-11-25T05:34:42;6.73;;;2.30;;
35743;SDS011;21867;52.012;4.324;2022-11-25T05:37:11;6.07;;;2.40;;
35743;SDS011;21867;52.012;4.324;2022-11-25T05:39:45;7.63;;;2.17;;
35743;SDS011;21867;52.012;4.324;2022-11-25T05:42:41;3.27;;;2.27;;
35743;SDS011;21867;52.012;4.324;2022-11-25T05:45:09;4.43;;;2.53;;
35743;SDS011;21867;52.012;4.324;2022-11-25T05:47:48;5.40;;;2.57;;
35743;SDS011;21867;52.012;4.324;2022-11-25T05:50:20;4.50;;;2.83;;
35743;SDS011;21867;52.012;4.324;2022-11-25T05:53:01;7.90;;;2.77;;
35743;SDS011;21867;52.012;4.324;2022-11-25T05:55:29;4.90;;;2.67;;
35743;SDS011;21867;52.012;4.324;2022-11-25T05:58:03;3.27;;;2.27;;
35743;SDS011;21867;52.012;4.324;2022-11-25T06:03:29;6.20;;;2.07;;
35743;SDS011;21867;52.012;4.324;2022-11-25T06:05:58;4.23;;;2.63;;
35743;SDS011;21867;52.012;4.324;2022-11-25T06:08:26;3.87;;;2.73;;
35743;SDS011;21867;52.012;4.324;2022-11-25T06:10:53;3.77;;;2.60;;
35743;SDS011;21867;52.012;4.324;2022-11-25T06:13:21;3.10;;;2.37;;
35743;SDS011;21867;52.012;4.324;2022-11-25T06:15:50;4.20;;;2.30;;
35743;SDS011;21867;52.012;4.324;2022-11-25T06:18:19;2.20;;;2.00;;
35743;SDS011;21867;52.012;4.324;2022-11-25T06:20:55;5.03;;;2.60;;
35743;SDS011;21867;52.012;4.324;2022-11-25T06:23:23;3.80;;;2.40;;
35743;SDS011;21867;52.012;4.324;2022-11-25T06:25:50;5.83;;;2.73;;
35743;SDS011;21867;52.012;4.324;2022-11-25T06:28:22;7.37;;;2.97;;
35743;SDS011;21867;52.012;4.324;2022-11-25T06:30:53;10.07;;;2.73;;
35743;SDS011;21867;52.012;4.324;2022-11-25T06:33:40;4.07;;;2.47;;
35743;SDS011;21867;52.012;4.324;2022-11-25T06:36:10;4.47;;;2.63;;
35743;SDS011;21867;52.012;4.324;2022-11-25T06:38:37;5.57;;;2.47;;
35743;SDS011;21867;52.012;4.324;2022-11-25T06:41:05;3.93;;;2.60;;
35743;SDS011;21867;52.012;4.324;2022-11-25T06:43:32;7.97;;;2.63;;
35743;SDS011;21867;52.012;4.324;2022-11-25T06:46:00;7.50;;;2.93;;
35743;SDS011;21867;52.012;4.324;2022-11-25T06:48:28;5.90;;;3.03;;
35743;SDS011;21867;52.012;4.324;2022-11-25T06:50:56;5.33;;;2.60;;
35743;SDS011;21867;52.012;4.324;2022-11-25T06:53:25;5.83;;;2.77;;
35743;SDS011;21867;52.012;4.324;2022-11-25T06:56:06;4.57;;;2.33;;
35743;SDS011;21867;52.012;4.324;2022-11-25T06:58:34;4.90;;;2.50;;
35743;SDS011;21867;52.012;4.324;2022-11-25T07:01:02;6.27;;;2.30;;
35743;SDS011;21867;52.012;4.324;2022-11-25T07:03:37;5.03;;;2.60;;
35743;SDS011;21867;52.012;4.324;2022-11-25T07:06:16;3.27;;;2.80;;
35743;SDS011;21867;52.012;4.324;2022-11-25T07:08:46;7.13;;;2.93;;
35743;SDS011;21867;52.012;4.324;2022-11-25T07:11:14;3.50;;;2.40;;
35743;SDS011;21867;52.012;4.324;2022-11-25T07:13:42;4.10;;;2.20;;
35743;SDS011;21867;52.012;4.324;2022-11-25T07:16:09;4.97;;;2.60;;
35743;SDS011;21867;52.012;4.324;2022-11-25T07:18:38;5.80;;;2.57;;
35743;SDS011;21867;52.012;4.324;2022-11-25T07:23:49;3.33;;;2.23;;
35743;SDS011;21867;52.012;4.324;2022-11-25T07:26:18;5.10;;;3.00;;
35743;SDS011;21867;52.012;4.324;2022-11-25T07:28:45;7.80;;;2.27;;
35743;SDS011;21867;52.012;4.324;2022-11-25T07:31:24;5.53;;;2.27;;
35743;SDS011;21867;52.012;4.324;2022-11-25T07:33:58;5.13;;;2.30;;
35743;SDS011;21867;52.012;4.324;2022-11-25T07:36:26;6.73;;;2.50;;
35743;SDS011;21867;52.012;4.324;2022-11-25T07:38:55;7.90;;;2.53;;
35743;SDS011;21867;52.012;4.324;2022-11-25T07:41:24;3.80;;;2.53;;
35743;SDS011;21867;52.012;4.324;2022-11-25T07:43:52;5.70;;;2.43;;
35743;SDS011;21867;52.012;4.324;2022-11-25T07:46:22;6.93;;;2.53;;
35743;SDS011;21867;52.012;4.324;2022-11-25T07:48:53;8.47;;;2.77;;
35743;SDS011;21867;52.012;4.324;2022-11-25T07:51:21;5.33;;;1.87;;
35743;SDS011;21867;52.012;4.324;2022-11-25T07:53:48;6.33;;;2.30;;
35743;SDS011;21867;52.012;4.324;2022-11-25T07:56:18;3.73;;;2.37;;
35743;SDS011;21867;52.012;4.324;2022-11-25T07:58:45;7.27;;;2.70;;
35743;SDS011;21867;52.012;4.324;2022-11-25T08:01:13;9.63;;;3.17;;
35743;SDS011;21867;52.012;4.324;2022-11-25T08:03:41;6.87;;;2.77;;
35743;SDS011;21867;52.012;4.324;2022-11-25T08:06:11;5.90;;;2.80;;
35743;SDS011;21867;52.012;4.324;2022-11-25T08:08:39;6.67;;;2.77;;
35743;SDS011;21867;52.012;4.324;2022-11-25T08:11:07;4.17;;;2.40;;
35743;SDS011;21867;52.012;4.324;2022-11-25T08:13:37;7.37;;;2.73;;
35743;SDS011;21867;52.012;4.324;2022-11-25T08:16:05;4.97;;;2.30;;
35743;SDS011;21867;52.012;4.324;2022-11-25T08:18:33;4.77;;;2.30;;
35743;SDS011;21867;52.012;4.324;2022-11-25T08:21:00;9.63;;;3.10;;
35743;SDS011;21867;52.012;4.324;2022-11-25T08:23:28;9.60;;;2.90;;
35743;SDS011;21867;52.012;4.324;2022-11-25T08:25:55;6.83;;;3.13;;
35743;SDS011;21867;52.012;4.324;2022-11-25T08:28:23;9.07;;;3.63;;
35743;SDS011;21867;52.012;4.324;2022-11-25T08:30:52;13.27;;;2.70;;
35743;SDS011;21867;52.012;4.324;2022-11-25T08:33:27;6.83;;;2.87;;
35743;SDS011;21867;52.012;4.324;2022-11-25T08:35:54;4.90;;;2.57;;
35743;SDS011;21867;52.012;4.324;2022-11-25T08:38:21;6.10;;;2.70;;
35743;SDS011;21867;52.012;4.324;2022-11-25T08:40:48;5.93;;;2.73;;
35743;SDS011;21867;52.012;4.324;2022-11-25T08:43:16;6.03;;;3.07;;
35743;SDS011;21867;52.012;4.324;2022-11-25T08:45:43;13.17;;;3.20;;
35743;SDS011;21867;52.012;4.324;2022-11-25T08:48:12;5.83;;;2.40;;
35743;SDS011;21867;52.012;4.324;2022-11-25T08:50:40;11.23;;;2.97;;
35743;SDS011;21867;52.012;4.324;2022-11-25T08:53:08;5.97;;;2.90;;
35743;SDS011;21867;52.012;4.324;2022-11-25T08:55:35;8.90;;;2.77;;
35743;SDS011;21867;52.012;4.324;2022-11-25T08:58:02;10.10;;;3.40;;
35743;SDS011;21867;52.012;4.324;2022-11-25T09:00:29;7.50;;;3.57;;
35743;SDS011;21867;52.012;4.324;2022-11-25T09:02:57;7.73;;;3.20;;
35743;SDS011;21867;52.012;4.324;2022-11-25T09:05:25;9.20;;;3.30;;
35743;SDS011;21867;52.012;4.324;2022-11-25T09:07:52;7.30;;;2.80;;
35743;SDS011;21867;52.012;4.324;2022-11-25T09:10:20;8.13;;;2.73;;
35743;SDS011;21867;52.012;4.324;2022-11-25T09:12:47;8.03;;;3.10;;
35743;SDS011;21867;52.012;4.324;2022-11-25T09:15:15;8.43;;;2.60;;
35743;SDS011;21867;52.012;4.324;2022-11-25T09:17:42;6.43;;;3.13;;
35743;SDS011;21867;52.012;4.324;2022-11-25T09:20:10;5.17;;;2.60;;
35743;SDS011;21867;52.012;4.324;2022-11-25T09:22:38;7.90;;;2.70;;
35743;SDS011;21867;52.012;4.324;2022-11-25T09:25:06;10.43;;;3.10;;
35743;SDS011;21867;52.012;4.324;2022-11-25T09:27:33;7.57;;;3.20;;
35743;SDS011;21867;52.012;4.324;2022-11-25T09:30:00;6.13;;;2.63;;
35743;SDS011;21867;52.012;4.324;2022-11-25T09:32:28;7.97;;;3.17;;
35743;SDS011;21867;52.012;4.324;2022-11-25T09:34:55;9.23;;;3.07;;
35743;SDS011;21867;52.012;4.324;2022-11-25T09:37:23;10.67;;;3.10;;
35743;SDS011;21867;52.012;4.324;2022-11-25T09:39:52;7.70;;;2.57;;
35743;SDS011;21867;52.012;4.324;2022-11-25T09:42:22;5.20;;;3.17;;
35743;SDS011;21867;52.012;4.324;2022-11-25T09:44:55;8.20;;;3.37;;
35743;SDS011;21867;52.012;4.324;2022-11-25T09:47:28;10.20;;;3.67;;
35743;SDS011;21867;52.012;4.324;2022-11-25T09:50:02;11.13;;;3.60;;
35743;SDS011;21867;52.012;4.324;2022-11-25T09:52:34;10.70;;;2.80;;
35743;SDS011;21867;52.012;4.324;2022-11-25T09:55:04;8.87;;;2.80;;
35743;SDS011;21867;52.012;4.324;2022-11-25T09:57:35;13.53;;;4.20;;
35743;SDS011;21867;52.012;4.324;2022-11-25T10:00:09;8.93;;;3.00;;
35743;SDS011;21867;52.012;4.324;2022-11-25T10:02:41;14.27;;;3.57;;
35743;SDS011;21867;52.012;4.324;2022-11-25T10:05:12;10.63;;;3.33;;
35743;SDS011;21867;52.012;4.324;2022-11-25T10:07:43;10.13;;;3.13;;
35743;SDS011;21867;52.012;4.324;2022-11-25T10:10:16;10.03;;;3.20;;
35743;SDS011;21867;52.012;4.324;2022-11-25T10:12:44;12.77;;;3.43;;
35743;SDS011;21867;52.012;4.324;2022-11-25T10:15:15;8.93;;;3.67;;
35743;SDS011;21867;52.012;4.324;2022-11-25T10:17:43;6.20;;;2.63;;
35743;SDS011;21867;52.012;4.324;2022-11-25T10:20:12;8.70;;;3.10;;
35743;SDS011;21867;52.012;4.324;2022-11-25T10:22:41;13.30;;;3.40;;
35743;SDS011;21867;52.012;4.324;2022-11-25T10:25:12;14.63;;;3.33;;
35743;SDS011;21867;52.012;4.324;2022-11-25T10:27:42;9.30;;;2.93;;
35743;SDS011;21867;52.012;4.324;2022-11-25T10:30:12;15.37;;;3.47;;
35743;SDS011;21867;52.012;4.324;2022-11-25T10:32:42;13.97;;;4.07;;
35743;SDS011;21867;52.012;4.324;2022-11-25T10:35:14;14.17;;;4.67;;
35743;SDS011;21867;52.012;4.324;2022-11-25T10:37:44;21.17;;;5.07;;
35743;SDS011;21867;52.012;4.324;2022-11-25T10:40:12;18.60;;;4.77;;
35743;SDS011;21867;52.012;4.324;2022-11-25T10:42:42;6.20;;;3.30;;
35743;SDS011;21867;52.012;4.324;2022-11-25T10:45:09;12.63;;;4.30;;
35743;SDS011;21867;52.012;4.324;2022-11-25T10:47:44;14.20;;;3.87;;
35743;SDS011;21867;52.012;4.324;2022-11-25T10:50:19;14.70;;;4.40;;
35743;SDS011;21867;52.012;4.324;2022-11-25T10:52:53;8.87;;;3.00;;
35743;SDS011;21867;52.012;4.324;2022-11-25T10:55:22;11.00;;;4.23;;
35743;SDS011;21867;52.012;4.324;2022-11-25T10:57:51;11.23;;;3.70;;
35743;SDS011;21867;52.012;4.324;2022-11-25T11:00:27;12.73;;;4.20;;
35743;SDS011;21867;52.012;4.324;2022-11-25T11:02:55;8.40;;;2.47;;
35743;SDS011;21867;52.012;4.324;2022-11-25T11:08:07;7.53;;;3.07;;
35743;SDS011;21867;52.012;4.324;2022-11-25T11:10:35;11.87;;;3.47;;
35743;SDS011;21867;52.012;4.324;2022-11-25T11:13:04;17.67;;;3.97;;
35743;SDS011;21867;52.012;4.324;2022-11-25T11:15:32;9.27;;;3.37;;
35743;SDS011;21867;52.012;4.324;2022-11-25T11:18:13;10.40;;;4.33;;
35743;SDS011;21867;52.012;4.324;2022-11-25T11:20:51;12.60;;;4.27;;
35743;SDS011;21867;52.012;4.324;2022-11-25T11:27:14;11.13;;;3.70;;
35743;SDS011;21867;52.012;4.324;2022-11-25T11:29:46;20.83;;;3.77;;
35743;SDS011;21867;52.012;4.324;2022-11-25T11:32:18;17.50;;;4.73;;
35743;SDS011;21867;52.012;4.324;2022-11-25T11:34:51;11.93;;;3.87;;
35743;SDS011;21867;52.012;4.324;2022-11-25T11:37:26;20.87;;;5.37;;
35743;SDS011;21867;52.012;4.324;2022-11-25T11:42:48;15.20;;;4.47;;
35743;SDS011;21867;52.012;4.324;2022-11-25T11:45:26;15.63;;;3.87;;
35743;SDS011;21867;52.012;4.324;2022-11-25T11:48:02;12.90;;;3.97;;
35743;SDS011;21867;52.012;4.324;2022-11-25T11:50:44;20.37;;;4.73;;
35743;SDS011;21867;52.012;4.324;2022-11-25T11:56:49;11.30;;;4.30;;
35743;SDS011;21867;52.012;4.324;2022-11-25T11:59:35;12.13;;;3.90;;
35743;SDS011;21867;52.012;4.324;2022-11-25T12:02:14;25.60;;;4.73;;
35743;SDS011;21867;52.012;4.324;2022-11-25T12:04:43;13.37;;;3.83;;
35743;SDS011;21867;52.012;4.324;2022-11-25T12:07:13;17.57;;;4.77;;
35743;SDS011;21867;52.012;4.324;2022-11-25T12:12:20;9.30;;;5.07;;
35743;SDS011;21867;52.012;4.324;2022-11-25T12:14:51;14.27;;;4.33;;
35743;SDS011;21867;52.012;4.324;2022-11-25T12:17:22;18.13;;;4.20;;
35743;SDS011;21867;52.012;4.324;2022-11-25T12:19:54;12.00;;;3.37;;
35743;SDS011;21867;52.012;4.324;2022-11-25T12:22:24;19.97;;;4.37;;
35743;SDS011;21867;52.012;4.324;2022-11-25T12:25:03;14.17;;;4.77;;
35743;SDS011;21867;52.012;4.324;2022-11-25T12:33:11;15.10;;;3.97;;
35743;SDS011;21867;52.012;4.324;2022-11-25T12:35:48;15.47;;;4.57;;
35743;SDS011;21867;52.012;4.324;2022-11-25T12:38:20;17.80;;;5.07;;
35743;SDS011;21867;52.012;4.324;2022-11-25T12:40:52;15.93;;;4.23;;
35743;SDS011;21867;52.012;4.324;2022-11-25T12:43:24;19.87;;;4.97;;
35743;SDS011;21867;52.012;4.324;2022-11-25T12:45:54;20.83;;;5.27;;
35743;SDS011;21867;52.012;4.324;2022-11-25T12:48:26;15.40;;;4.90;;
35743;SDS011;21867;52.012;4.324;2022-11-25T12:50:55;16.50;;;4.20;;
35743;SDS011;21867;52.012;4.324;2022-11-25T12:53:27;16.23;;;3.73;;
35743;SDS011;21867;52.012;4.324;2022-11-25T12:55:59;15.97;;;2.97;;
35743;SDS011;21867;52.012;4.324;2022-11-25T12:58:30;17.90;;;4.73;;
35743;SDS011;21867;52.012;4.324;2022-11-25T13:01:07;12.57;;;4.63;;
35743;SDS011;21867;52.012;4.324;2022-11-25T13:06:45;12.40;;;2.70;;
35743;SDS011;21867;52.012;4.324;2022-11-25T13:09:20;4.70;;;2.23;;
35743;SDS011;21867;52.012;4.324;2022-11-25T13:11:58;10.63;;;3.77;;
35743;SDS011;21867;52.012;4.324;2022-11-25T13:14:32;10.00;;;3.37;;
35743;SDS011;21867;52.012;4.324;2022-11-25T13:17:07;12.17;;;3.63;;
35743;SDS011;21867;52.012;4.324;2022-11-25T13:19:37;9.37;;;3.60;;
35743;SDS011;21867;52.012;4.324;2022-11-25T13:22:21;6.53;;;2.63;;
35743;SDS011;21867;52.012;4.324;2022-11-25T13:24:51;10.77;;;3.33;;
35743;SDS011;21867;52.012;4.324;2022-11-25T13:27:28;13.93;;;3.47;;
35743;SDS011;21867;52.012;4.324;2022-11-25T13:29:56;17.73;;;3.67;;
35743;SDS011;21867;52.012;4.324;2022-11-25T13:41:31;14.00;;;3.83;;
35743;SDS011;21867;52.012;4.324;2022-11-25T13:44:00;21.63;;;3.53;;
35743;SDS011;21867;52.012;4.324;2022-11-25T13:46:33;10.57;;;3.07;;
35743;SDS011;21867;52.012;4.324;2022-11-25T13:49:03;8.07;;;2.40;;
35743;SDS011;21867;52.012;4.324;2022-11-25T13:51:31;10.23;;;3.03;;
35743;SDS011;21867;52.012;4.324;2022-11-25T13:56:57;15.50;;;3.53;;
35743;SDS011;21867;52.012;4.324;2022-11-25T13:59:35;7.03;;;3.60;;
35743;SDS011;21867;52.012;4.324;2022-11-25T14:02:22;16.47;;;4.97;;
35743;SDS011;21867;52.012;4.324;2022-11-25T14:08:44;10.57;;;3.50;;
35743;SDS011;21867;52.012;4.324;2022-11-25T14:14:24;9.50;;;3.03;;
35743;SDS011;21867;52.012;4.324;2022-11-25T14:17:00;14.67;;;3.80;;
35743;SDS011;21867;52.012;4.324;2022-11-25T14:19:40;4.77;;;2.43;;
35743;SDS011;21867;52.012;4.324;2022-11-25T14:22:22;13.20;;;3.60;;
35743;SDS011;21867;52.012;4.324;2022-11-25T14:24:53;9.00;;;2.83;;
35743;SDS011;21867;52.012;4.324;2022-11-25T14:27:24;12.13;;;3.50;;
35743;SDS011;21867;52.012;4.324;2022-11-25T14:29:54;5.50;;;2.13;;
35743;SDS011;21867;52.012;4.324;2022-11-25T14:32:24;9.47;;;3.07;;
35743;SDS011;21867;52.012;4.324;2022-11-25T14:34:55;16.13;;;3.87;;
35743;SDS011;21867;52.012;4.324;2022-11-25T14:37:25;11.03;;;2.10;;
35743;SDS011;21867;52.012;4.324;2022-11-25T14:42:47;9.30;;;2.50;;
35743;SDS011;21867;52.012;4.324;2022-11-25T14:45:22;10.07;;;3.43;;
35743;SDS011;21867;52.012;4.324;2022-11-25T14:47:50;14.07;;;3.73;;
35743;SDS011;21867;52.012;4.324;2022-11-25T14:50:17;8.93;;;2.53;;
35743;SDS011;21867;52.012;4.324;2022-11-25T14:53:03;10.50;;;4.27;;
35743;SDS011;21867;52.012;4.324;2022-11-25T14:55:31;6.77;;;2.70;;
35743;SDS011;21867;52.012;4.324;2022-11-25T15:00:51;9.83;;;3.40;;
35743;SDS011;21867;52.012;4.324;2022-11-25T15:03:18;12.83;;;3.27;;
35743;SDS011;21867;52.012;4.324;2022-11-25T15:05:52;7.37;;;2.90;;
35743;SDS011;21867;52.012;4.324;2022-11-25T15:08:20;7.73;;;3.17;;
35743;SDS011;21867;52.012;4.324;2022-11-25T15:10:49;9.60;;;3.10;;
35743;SDS011;21867;52.012;4.324;2022-11-25T15:13:37;15.03;;;3.73;;
35743;SDS011;21867;52.012;4.324;2022-11-25T15:16:29;9.17;;;3.40;;
35743;SDS011;21867;52.012;4.324;2022-11-25T15:19:13;7.50;;;2.90;;
35743;SDS011;21867;52.012;4.324;2022-11-25T15:21:42;8.37;;;3.50;;
35743;SDS011;21867;52.012;4.324;2022-11-25T15:24:31;17.40;;;4.13;;
35743;SDS011;21867;52.012;4.324;2022-11-25T15:26:59;10.27;;;3.37;;
35743;SDS011;21867;52.012;4.324;2022-11-25T15:32:23;21.20;;;5.43;;
35743;SDS011;21867;52.012;4.324;2022-11-25T15:34:51;11.53;;;3.53;;
35743;SDS011;21867;52.012;4.324;2022-11-25T15:37:19;12.17;;;3.60;;
35743;SDS011;21867;52.012;4.324;2022-11-25T15:39:46;13.27;;;3.80;;
35743;SDS011;21867;52.012;4.324;2022-11-25T15:42:14;13.67;;;3.70;;
35743;SDS011;21867;52.012;4.324;2022-11-25T15:44:46;14.87;;;3.63;;
35743;SDS011;21867;52.012;4.324;2022-11-25T15:47:17;14.73;;;3.60;;
35743;SDS011;21867;52.012;4.324;2022-11-25T15:49:48;14.43;;;3.53;;
35743;SDS011;21867;52.012;4.324;2022-11-25T15:52:16;16.27;;;3.37;;
35743;SDS011;21867;52.012;4.324;2022-11-25T15:57:43;14.43;;;4.17;;
35743;SDS011;21867;52.012;4.324;2022-11-25T16:00:16;17.03;;;4.47;;
35743;SDS011;21867;52.012;4.324;2022-11-25T16:02:50;8.00;;;3.17;;
35743;SDS011;21867;52.012;4.324;2022-11-25T16:05:30;7.47;;;2.90;;
35743;SDS011;21867;52.012;4.324;2022-11-25T16:07:59;18.73;;;3.60;;